Time;durP1;ratioP1;P1;durP2;ratioP2;P2;SDS_P1;SDS_P2;PMS_P1;PMS_P2;Temp;Humidity;BMP_temperature;BMP_pressure;BME280_temperature;BME280_humidity;BME280_pressure;Samples;Min_cycle;Max_cycle;Signal;HPM_P1;HPM_P2
2023/10/20 00:01:32;;;;;;;1.52;1.30;;;16.30;72.10;;;;;;5114160;28;20262;-72
2023/10/20 00:03:58;;;;;;;1.38;1.27;;;16.30;72.20;;;;;;5113313;28;20255;-72
2023/10/20 00:06:24;;;;;;;2.35;1.30;;;16.30;72.20;;;;;;5113996;28;20264;-74
2023/10/20 00:08:49;;;;;;;2.40;1.40;;;16.30;72.30;;;;;;5113364;28;20646;-74
2023/10/20 00:11:15;;;;;;;1.60;1.50;;;16.30;72.20;;;;;;5113712;28;20223;-74
2023/10/20 00:13:41;;;;;;;2.40;1.40;;;16.30;72.20;;;;;;5114280;28;20177;-73
2023/10/20 00:16:06;;;;;;;1.83;1.73;;;16.80;72.60;;;;;;5112955;28;20177;-74
2023/10/20 00:18:32;;;;;;;2.25;1.60;;;16.30;72.20;;;;;;5113545;28;20184;-72
2023/10/20 00:20:57;;;;;;;1.55;1.45;;;16.30;72.20;;;;;;5114015;28;20259;-73
2023/10/20 00:23:23;;;;;;;1.80;1.70;;;16.30;72.30;;;;;;5112900;28;20272;-74
2023/10/20 00:25:49;;;;;;;2.42;2.05;;;16.30;72.30;;;;;;5113656;28;20204;-74
2023/10/20 00:28:14;;;;;;;1.77;1.50;;;16.30;72.20;;;;;;5113428;28;20197;-74
2023/10/20 00:30:40;;;;;;;1.67;1.50;;;16.30;72.30;;;;;;5113026;28;20232;-73
2023/10/20 00:33:06;;;;;;;1.52;1.42;;;16.30;72.40;;;;;;5113441;28;20173;-73
2023/10/20 00:35:31;;;;;;;2.08;1.70;;;16.30;72.30;;;;;;5113464;28;20226;-73
2023/10/20 00:37:58;;;;;;;2.38;1.67;;;16.30;72.40;;;;;;5112877;28;20169;-73
2023/10/20 00:40:23;;;;;;;1.50;1.40;;;16.30;72.40;;;;;;5113105;28;20217;-73
2023/10/20 00:42:51;;;;;;;1.55;1.45;;;16.30;72.40;;;;;;5113715;28;20600;-72
2023/10/20 00:45:17;;;;;;;2.00;1.75;;;16.30;72.40;;;;;;5112640;28;20179;-72
2023/10/20 00:47:44;;;;;;;1.40;1.30;;;16.30;72.40;;;;;;5113378;28;20598;-72
2023/10/20 00:50:14;;;;;;;2.08;1.98;;;16.30;72.40;;;;;;5078642;28;20618;-72
2023/10/20 00:52:52;;;;;;;2.30;1.75;;;16.30;72.40;;;;;;5112473;28;20224;-73
2023/10/20 00:55:18;;;;;;;2.90;2.00;;;16.30;72.50;;;;;;5113285;28;20524;-73
2023/10/20 00:57:44;;;;;;;1.92;1.83;;;16.30;72.40;;;;;;5078332;28;20627;-73
2023/10/20 01:00:13;;;;;;;3.15;1.98;;;16.30;72.40;;;;;;5112478;28;20550;-73
2023/10/20 01:02:39;;;;;;;1.77;1.67;;;16.30;72.50;;;;;;5113145;28;20177;-73
2023/10/20 01:05:08;;;;;;;1.77;1.67;;;16.30;72.50;;;;;;5117978;28;20177;-74
2023/10/20 01:07:34;;;;;;;2.17;2.05;;;16.30;72.40;;;;;;5123677;28;20183;-74
2023/10/20 01:10:05;;;;;;;2.10;1.95;;;16.30;72.50;;;;;;5113685;28;20208;-74
2023/10/20 01:12:32;;;;;;;2.75;1.70;;;16.30;72.50;;;;;;5112363;28;20673;-73
2023/10/20 01:14:59;;;;;;;2.75;1.90;;;16.30;73.40;;;;;;5113169;28;20301;-73
2023/10/20 01:17:26;;;;;;;2.35;1.58;;;16.20;72.40;;;;;;5112795;28;20183;-73
2023/10/20 01:19:51;;;;;;;1.90;1.77;;;16.30;72.50;;;;;;5112520;28;20188;-73
2023/10/20 01:22:17;;;;;;;2.75;2.08;;;16.30;72.50;;;;;;5112551;28;20536;-74
2023/10/20 01:24:43;;;;;;;2.40;2.20;;;16.30;72.50;;;;;;5113047;28;20628;-74
2023/10/20 01:27:08;;;;;;;3.22;2.47;;;16.20;72.40;;;;;;5112160;28;20176;-74
2023/10/20 01:29:34;;;;;;;2.28;2.05;;;16.30;72.60;;;;;;5112590;28;20224;-72
2023/10/20 01:31:59;;;;;;;2.45;1.90;;;16.20;72.50;;;;;;5112709;28;20255;-74
2023/10/20 01:34:25;;;;;;;2.08;1.92;;;16.20;72.50;;;;;;5111951;28;20203;-73
2023/10/20 01:36:50;;;;;;;2.35;1.95;;;16.20;72.50;;;;;;5112748;28;20173;-74
2023/10/20 01:39:19;;;;;;;2.30;2.10;;;16.30;72.60;;;;;;5114682;28;20200;-72
2023/10/20 01:41:45;;;;;;;5.18;2.40;;;16.30;72.60;;;;;;5116397;28;20184;-72
2023/10/20 01:44:11;;;;;;;2.22;1.92;;;16.20;72.50;;;;;;5116666;28;20173;-71
2023/10/20 01:46:36;;;;;;;1.83;1.70;;;16.20;72.50;;;;;;5116838;28;20318;-72
2023/10/20 01:49:02;;;;;;;4.45;2.30;;;16.20;72.50;;;;;;5115854;28;20177;-72
2023/10/20 01:51:27;;;;;;;3.65;2.10;;;16.20;72.60;;;;;;5116511;28;20236;-72
2023/10/20 01:53:53;;;;;;;1.90;1.80;;;16.20;72.60;;;;;;5116895;28;20161;-73
2023/10/20 01:56:18;;;;;;;2.38;2.17;;;16.20;72.60;;;;;;5115768;28;20181;-74
2023/10/20 01:58:44;;;;;;;2.55;2.30;;;16.20;72.60;;;;;;5116500;28;20639;-74
2023/10/20 02:01:09;;;;;;;1.83;1.73;;;16.20;72.60;;;;;;5116268;28;20169;-73
2023/10/20 02:03:35;;;;;;;2.40;2.03;;;16.20;72.70;;;;;;5116042;28;20556;-72
2023/10/20 02:06:01;;;;;;;1.80;1.70;;;16.20;72.70;;;;;;5116557;28;20530;-74
2023/10/20 02:08:27;;;;;;;3.70;2.35;;;16.20;72.70;;;;;;5115713;28;20640;-74
2023/10/20 02:10:52;;;;;;;3.53;2.25;;;16.20;72.70;;;;;;5116509;28;20208;-75
2023/10/20 02:13:18;;;;;;;2.33;2.13;;;16.20;72.70;;;;;;5116085;28;20695;-74
2023/10/20 02:15:47;;;;;;;1.98;1.88;;;16.20;72.70;;;;;;5115280;28;20631;-73
2023/10/20 02:18:12;;;;;;;3.50;2.42;;;16.20;72.70;;;;;;5115964;28;20179;-74
2023/10/20 02:20:38;;;;;;;2.88;2.65;;;16.20;72.70;;;;;;5116090;28;20265;-73
2023/10/20 02:23:07;;;;;;;2.50;2.30;;;16.20;72.80;;;;;;5115208;28;20173;-73
2023/10/20 02:25:32;;;;;;;4.15;2.30;;;16.20;72.80;;;;;;5116067;28;20177;-73
2023/10/20 02:27:58;;;;;;;2.30;2.10;;;16.20;72.80;;;;;;5115941;28;20543;-73
2023/10/20 02:30:23;;;;;;;2.55;2.03;;;16.20;72.80;;;;;;5115278;28;20678;-73
2023/10/20 02:32:49;;;;;;;2.13;1.92;;;16.20;72.90;;;;;;5115926;28;20260;-72
2023/10/20 02:35:14;;;;;;;2.58;2.33;;;16.20;72.80;;;;;;5115437;28;20181;-72
2023/10/20 02:37:40;;;;;;;2.28;2.08;;;16.20;72.90;;;;;;5115094;28;20198;-72
2023/10/20 02:40:06;;;;;;;2.75;2.42;;;16.20;72.90;;;;;;5115603;28;20698;-72
2023/10/20 02:42:32;;;;;;;2.67;2.30;;;16.20;72.90;;;;;;5115625;28;20184;-72
2023/10/20 02:44:58;;;;;;;2.80;2.40;;;16.20;72.90;;;;;;5115003;28;20631;-72
2023/10/20 02:47:24;;;;;;;2.20;2.10;;;16.20;73.00;;;;;;5115504;28;20185;-72
2023/10/20 02:49:55;;;;;;;4.65;2.17;;;16.20;73.00;;;;;;5114902;28;20730;-72
2023/10/20 02:52:21;;;;;;;4.43;2.83;;;16.20;72.90;;;;;;5114176;28;20608;-73
2023/10/20 02:54:47;;;;;;;3.13;2.40;;;16.20;72.90;;;;;;5115385;28;20639;-73
2023/10/20 02:57:12;;;;;;;2.60;2.40;;;16.20;72.90;;;;;;5115255;28;20173;-73
2023/10/20 02:59:38;;;;;;;2.78;2.58;;;16.20;73.00;;;;;;5114699;28;20162;-73
2023/10/20 03:02:03;;;;;;;4.18;2.50;;;16.20;72.90;;;;;;5115192;28;20184;-72
2023/10/20 03:04:30;;;;;;;3.15;2.78;;;16.20;72.90;;;;;;5114908;28;20171;-73
2023/10/20 03:06:55;;;;;;;3.15;2.47;;;16.20;72.90;;;;;;5115477;28;20173;-73
2023/10/20 03:09:22;;;;;;;3.75;2.70;;;16.20;72.80;;;;;;5115076;28;20195;-73
2023/10/20 03:11:47;;;;;;;2.58;2.35;;;16.10;72.90;;;;;;5114354;28;20651;-73
2023/10/20 03:14:13;;;;;;;3.97;3.13;;;16.20;72.90;;;;;;5114799;28;20268;-73
2023/10/20 03:16:42;;;;;;;3.08;2.78;;;16.20;72.90;;;;;;5115039;28;20268;-73
2023/10/20 03:19:09;;;;;;;4.90;3.33;;;16.10;72.90;;;;;;5114322;28;20187;-72
2023/10/20 03:21:34;;;;;;;3.88;3.03;;;16.10;72.80;;;;;;5114878;28;20573;-72
2023/10/20 03:24:00;;;;;;;3.30;3.00;;;16.20;72.90;;;;;;5114881;28;20176;-74
2023/10/20 03:26:25;;;;;;;3.50;3.10;;;16.10;72.80;;;;;;5114111;28;20218;-74
2023/10/20 03:28:51;;;;;;;3.55;3.22;;;16.10;72.80;;;;;;5114915;28;20211;-74
2023/10/20 03:31:17;;;;;;;3.53;3.22;;;16.10;72.90;;;;;;5114415;28;20231;-72
2023/10/20 03:33:42;;;;;;;3.50;3.20;;;16.10;72.80;;;;;;5114224;28;20169;-72
2023/10/20 03:36:08;;;;;;;3.72;3.33;;;16.10;72.70;;;;;;5114770;28;20208;-72
2023/10/20 03:38:34;;;;;;;4.32;3.78;;;16.10;72.80;;;;;;5114499;28;20169;-73
2023/10/20 03:41:06;;;;;;;5.07;3.50;;;16.10;72.80;;;;;;5113897;28;20195;-73
2023/10/20 03:43:32;;;;;;;4.32;3.75;;;16.10;72.80;;;;;;5114529;28;20177;-71
2023/10/20 03:45:59;;;;;;;4.03;3.50;;;16.10;72.80;;;;;;5114526;28;20217;-72
2023/10/20 03:48:25;;;;;;;4.97;4.00;;;16.20;72.80;;;;;;5095742;28;20690;-72
2023/10/20 03:50:51;;;;;;;3.92;3.63;;;16.10;72.70;;;;;;5114477;28;20240;-72
2023/10/20 03:53:26;;;;;;;4.60;3.67;;;16.10;72.80;;;;;;5114334;28;20197;-74
2023/10/20 03:56:02;;;;;;;5.90;4.53;;;16.10;72.70;;;;;;5113750;28;20173;-73
2023/10/20 03:58:29;;;;;;;4.22;3.83;;;16.10;72.70;;;;;;5114094;28;20204;-74
2023/10/20 04:00:58;;;;;;;4.80;4.28;;;16.10;72.70;;;;;;5113333;28;20659;-73
2023/10/20 04:03:26;;;;;;;5.45;4.28;;;16.10;72.80;;;;;;5114163;28;20181;-73
2023/10/20 04:05:55;;;;;;;4.82;4.32;;;16.10;72.80;;;;;;5114413;28;20209;-74
2023/10/20 04:08:20;;;;;;;4.35;3.88;;;16.10;72.70;;;;;;5113113;28;20165;-73
2023/10/20 04:10:46;;;;;;;4.82;3.95;;;16.10;72.70;;;;;;5114031;28;20265;-74
2023/10/20 04:13:12;;;;;;;4.72;4.22;;;16.10;72.70;;;;;;5113579;28;20187;-73
2023/10/20 04:15:42;;;;;;;4.80;4.18;;;16.10;72.70;;;;;;5113287;28;20172;-74
2023/10/20 04:18:08;;;;;;;5.00;4.40;;;16.10;73.60;;;;;;5114389;28;20583;-73
2023/10/20 04:20:41;;;;;;;4.93;4.43;;;16.10;72.70;;;;;;5113581;28;20544;-73
2023/10/20 04:23:07;;;;;;;4.72;4.15;;;16.10;72.70;;;;;;5113056;28;20177;-74
2023/10/20 04:25:52;;;;;;;4.22;3.75;;;16.10;72.80;;;;;;5114009;28;20166;-72
2023/10/20 04:28:28;;;;;;;4.68;4.28;;;16.10;72.70;;;;;;5113448;28;20181;-73
2023/10/20 04:41:55;;;;;;;5.85;4.38;;;16.10;72.70;;;;;;5113595;28;20168;-72
2023/10/20 04:57:50;;;;;;;7.07;5.10;;;16.00;72.70;;;;;;5112640;28;20688;-72
2023/10/20 05:07:51;;;;;;;5.00;4.60;;;16.00;72.70;;;;;;5113601;28;20649;-75
2023/10/20 05:10:20;;;;;;;4.72;4.18;;;16.00;72.80;;;;;;5112956;28;20274;-73
2023/10/20 05:12:46;;;;;;;5.75;4.90;;;16.10;72.80;;;;;;5112094;28;20177;-74
2023/10/20 05:15:12;;;;;;;5.30;4.80;;;16.00;72.70;;;;;;5112480;28;20177;-73
2023/10/20 05:17:38;;;;;;;5.35;4.85;;;16.00;72.80;;;;;;5112963;28;20287;-73
2023/10/20 05:20:08;;;;;;;6.47;4.55;;;16.00;72.70;;;;;;5112251;28;20172;-75
2023/10/20 05:22:34;;;;;;;5.22;4.60;;;16.00;72.70;;;;;;5112950;28;20703;-73
2023/10/20 05:24:59;;;;;;;5.18;4.68;;;16.00;72.70;;;;;;5112757;28;20264;-73
2023/10/20 05:27:25;;;;;;;4.93;4.47;;;16.00;72.70;;;;;;5112165;28;20169;-73
2023/10/20 05:29:51;;;;;;;5.00;4.50;;;16.00;72.80;;;;;;5113143;28;20197;-73
2023/10/20 05:32:17;;;;;;;5.15;4.65;;;16.00;72.80;;;;;;5111817;28;20264;-74
2023/10/20 05:34:43;;;;;;;5.30;4.80;;;16.00;73.20;;;;;;5112737;28;20165;-72
2023/10/20 05:37:09;;;;;;;4.50;4.10;;;16.10;72.80;;;;;;5112701;28;20271;-73
2023/10/20 05:39:34;;;;;;;5.40;4.90;;;16.00;72.70;;;;;;5112228;28;20261;-72
2023/10/20 05:42:04;;;;;;;5.03;4.53;;;16.00;72.70;;;;;;5112687;28;20180;-72
2023/10/20 05:44:33;;;;;;;5.18;4.63;;;16.00;72.80;;;;;;5112564;28;20173;-71
2023/10/20 05:46:58;;;;;;;6.88;4.82;;;16.00;72.70;;;;;;5112092;28;20177;-72
2023/10/20 05:49:24;;;;;;;5.05;4.25;;;16.00;72.80;;;;;;5112704;28;20639;-72
2023/10/20 05:51:51;;;;;;;4.97;4.32;;;16.00;72.80;;;;;;5112645;28;20240;-72
2023/10/20 05:54:20;;;;;;;5.35;4.63;;;16.00;72.80;;;;;;5111811;28;20213;-72
2023/10/20 05:56:45;;;;;;;4.75;4.28;;;16.00;72.80;;;;;;5112528;28;20709;-73
2023/10/20 05:59:11;;;;;;;4.72;4.32;;;16.00;72.70;;;;;;5112223;28;20169;-72
2023/10/20 06:01:36;;;;;;;4.78;4.38;;;16.00;72.80;;;;;;5112155;28;20169;-72
2023/10/20 06:04:03;;;;;;;4.55;4.10;;;16.00;72.70;;;;;;5112421;28;20226;-72
2023/10/20 06:06:31;;;;;;;5.20;4.72;;;16.00;72.70;;;;;;5094483;28;20674;-74
2023/10/20 06:08:57;;;;;;;4.80;4.30;;;16.00;72.70;;;;;;5111812;28;20677;-74
2023/10/20 06:11:22;;;;;;;5.45;4.82;;;16.10;72.90;;;;;;5112229;28;20220;-72
2023/10/20 06:13:48;;;;;;;4.32;3.92;;;16.10;72.90;;;;;;5112324;28;20662;-73
2023/10/20 06:16:13;;;;;;;4.30;3.90;;;16.20;72.90;;;;;;5111664;28;20652;-72
2023/10/20 06:18:43;;;;;;;4.47;4.07;;;16.30;72.80;;;;;;5112454;28;20164;-73
2023/10/20 06:21:19;;;;;;;3.78;3.40;;;16.40;72.80;;;;;;5112324;28;20264;-73
2023/10/20 06:23:45;;;;;;;4.13;3.83;;;16.60;72.50;;;;;;5111641;28;20746;-74
2023/10/20 06:26:12;;;;;;;4.22;3.83;;;16.70;73.00;;;;;;5115140;28;20263;-74
2023/10/20 06:28:37;;;;;;;4.20;3.80;;;16.80;71.80;;;;;;5115543;28;20196;-72
2023/10/20 06:31:27;;;;;;;3.90;3.50;;;17.00;71.40;;;;;;5115979;28;20236;-73
2023/10/20 06:34:23;;;;;;;4.22;3.83;;;17.00;71.10;;;;;;5116106;28;20205;-73
2023/10/20 06:36:46;;;;;;;3.80;3.50;;;17.10;70.90;;;;;;5114388;28;20197;-73
2023/10/20 06:39:15;;;;;;;2.97;2.78;;;17.30;70.60;;;;;;5115896;28;20526;-72
2023/10/20 06:41:41;;;;;;;3.45;3.15;;;17.40;70.30;;;;;;5115658;28;20727;-72
2023/10/20 06:44:06;;;;;;;3.13;2.83;;;17.60;69.60;;;;;;5114833;28;20264;-70
2023/10/20 06:46:32;;;;;;;3.90;3.47;;;17.70;69.10;;;;;;5115655;28;20172;-71
2023/10/20 06:48:57;;;;;;;3.70;3.40;;;17.70;69.70;;;;;;5115553;28;20176;-72
2023/10/20 06:51:25;;;;;;;3.58;3.22;;;17.70;68.70;;;;;;5114347;28;20232;-73
2023/10/20 06:53:50;;;;;;;3.38;3.08;;;17.70;68.60;;;;;;5115847;28;20174;-73
2023/10/20 06:56:16;;;;;;;3.92;3.38;;;17.90;68.40;;;;;;5115309;28;20543;-73
2023/10/20 06:58:41;;;;;;;3.58;3.25;;;18.40;68.70;;;;;;5114846;28;20530;-73
2023/10/20 07:01:07;;;;;;;3.42;3.08;;;17.90;68.40;;;;;;5115375;28;20545;-73
2023/10/20 07:03:33;;;;;;;3.45;3.15;;;17.80;68.50;;;;;;5115105;28;20217;-73
2023/10/20 07:06:06;;;;;;;2.95;2.75;;;17.70;68.70;;;;;;5114185;28;20200;-74
2023/10/20 07:08:32;;;;;;;3.17;2.95;;;17.70;68.80;;;;;;5115081;28;20180;-73
2023/10/20 07:11:02;;;;;;;3.90;3.42;;;17.60;68.90;;;;;;5114427;28;20216;-73
2023/10/20 07:13:27;;;;;;;3.40;3.10;;;17.50;69.20;;;;;;5115134;28;20192;-72
2023/10/20 07:15:56;;;;;;;3.45;3.15;;;17.40;69.30;;;;;;5115462;28;20557;-73
2023/10/20 07:18:22;;;;;;;3.72;3.35;;;17.40;69.50;;;;;;5114493;28;20173;-73
2023/10/20 07:20:47;;;;;;;3.33;2.95;;;17.30;69.80;;;;;;5114964;28;20260;-72
2023/10/20 07:23:13;;;;;;;3.42;3.15;;;17.30;70.00;;;;;;5114887;28;20256;-74
2023/10/20 07:25:38;;;;;;;3.75;3.17;;;17.20;70.10;;;;;;5114223;28;20252;-75
2023/10/20 07:28:04;;;;;;;4.45;3.33;;;17.20;70.10;;;;;;5114820;28;20169;-74
2023/10/20 07:30:34;;;;;;;3.08;2.88;;;17.10;70.20;;;;;;5114592;28;20200;-75
2023/10/20 07:32:59;;;;;;;3.70;3.40;;;17.10;70.50;;;;;;5113696;28;20169;-73
2023/10/20 07:35:25;;;;;;;4.07;3.10;;;17.00;70.60;;;;;;5114763;28;20280;-74
2023/10/20 07:37:51;;;;;;;3.45;3.15;;;17.00;70.80;;;;;;5114138;28;20172;-73
2023/10/20 07:40:18;;;;;;;3.47;3.17;;;16.90;70.80;;;;;;5113747;28;20216;-73
2023/10/20 07:42:45;;;;;;;3.63;3.33;;;16.90;71.00;;;;;;5114565;28;20215;-72
2023/10/20 07:45:11;;;;;;;3.70;2.97;;;16.90;71.00;;;;;;5114091;28;20510;-73
2023/10/20 07:47:37;;;;;;;3.58;3.17;;;16.80;71.20;;;;;;5113868;28;20233;-70
2023/10/20 07:50:06;;;;;;;4.15;3.30;;;16.80;71.30;;;;;;5114216;28;20711;-73
2023/10/20 07:52:32;;;;;;;3.67;3.17;;;16.80;71.50;;;;;;5113943;28;20679;-73
2023/10/20 07:54:57;;;;;;;4.95;3.47;;;16.80;71.60;;;;;;5113413;28;20211;-71
2023/10/20 07:57:24;;;;;;;4.15;3.20;;;16.80;71.80;;;;;;5113943;28;20213;-72
2023/10/20 07:59:53;;;;;;;5.38;3.33;;;16.80;71.80;;;;;;5114306;28;20173;-71
2023/10/20 08:02:18;;;;;;;4.22;3.60;;;16.90;72.10;;;;;;5114062;28;20455;-72
2023/10/20 08:04:45;;;;;;;4.78;3.30;;;16.90;72.30;;;;;;5114003;28;20231;-72
2023/10/20 08:07:10;;;;;;;4.85;3.35;;;16.90;72.20;;;;;;5113290;28;20181;-73
2023/10/20 08:09:36;;;;;;;4.45;3.50;;;16.90;72.10;;;;;;5113756;28;20231;-73
2023/10/20 08:12:02;;;;;;;5.32;3.50;;;16.90;72.20;;;;;;5113874;28;20568;-73
2023/10/20 08:14:28;;;;;;;3.75;3.38;;;16.90;72.20;;;;;;5113060;28;20534;-74
2023/10/20 08:16:54;;;;;;;3.95;3.33;;;16.80;72.10;;;;;;5113982;28;20245;-72
2023/10/20 08:19:20;;;;;;;4.95;3.10;;;16.80;72.10;;;;;;5113876;28;20639;-72
2023/10/20 08:21:45;;;;;;;4.55;3.60;;;16.80;72.30;;;;;;5113077;28;20165;-68
2023/10/20 08:24:11;;;;;;;4.35;3.17;;;16.80;72.30;;;;;;5117016;27;20518;-68
2023/10/20 08:26:37;;;;;;;4.00;2.90;;;16.80;72.40;;;;;;5125281;27;20549;-68
2023/10/20 08:29:12;;;;;;;4.82;3.10;;;16.90;72.40;;;;;;5133302;27;20172;-78
2023/10/20 08:31:38;;;;;;;3.90;3.13;;;16.90;72.30;;;;;;5134685;27;20211;-75
2023/10/20 08:34:04;;;;;;;3.95;3.40;;;16.90;72.40;;;;;;5134420;27;20188;-76
2023/10/20 08:36:30;;;;;;;4.53;3.20;;;16.90;72.50;;;;;;5134048;27;20257;-77
2023/10/20 08:38:55;;;;;;;3.55;3.20;;;16.90;72.50;;;;;;5135202;27;20176;-74
2023/10/20 08:41:22;;;;;;;5.28;2.83;;;16.90;72.60;;;;;;5134686;27;20251;-75
2023/10/20 08:43:47;;;;;;;3.40;2.60;;;16.90;72.60;;;;;;5133962;27;20172;-78
2023/10/20 08:46:14;;;;;;;4.03;3.08;;;16.90;72.70;;;;;;5134808;27;20172;-77
2023/10/20 08:48:40;;;;;;;3.35;3.05;;;16.90;72.70;;;;;;5135272;27;20200;-80
2023/10/20 08:51:07;;;;;;;3.88;3.30;;;16.90;72.80;;;;;;5133358;27;20231;-76
2023/10/20 08:53:36;;;;;;;3.10;2.80;;;16.90;72.80;;;;;;5133777;27;20680;-77
2023/10/20 08:56:03;;;;;;;3.65;3.00;;;16.80;72.90;;;;;;5133754;27;20545;-78
2023/10/20 08:58:29;;;;;;;5.53;2.63;;;16.90;73.10;;;;;;5133050;27;20169;-78
2023/10/20 09:00:55;;;;;;;3.30;3.00;;;16.80;73.10;;;;;;5134547;27;20179;-73
2023/10/20 09:03:21;;;;;;;3.72;2.65;;;16.80;73.00;;;;;;5132941;27;20164;-77
2023/10/20 09:05:46;;;;;;;2.67;2.20;;;16.80;73.00;;;;;;5133950;27;20184;-72
2023/10/20 09:08:12;;;;;;;3.38;2.70;;;16.80;73.20;;;;;;5133231;27;20171;-74
2023/10/20 09:10:45;;;;;;;6.90;2.90;;;16.80;73.30;;;;;;5114493;28;20211;-73
2023/10/20 09:13:11;;;;;;;3.97;2.67;;;16.80;73.20;;;;;;5134196;27;20293;-72
2023/10/20 09:15:37;;;;;;;2.83;2.63;;;16.70;73.10;;;;;;5133774;27;20172;-71
2023/10/20 09:18:06;;;;;;;4.07;2.78;;;16.70;73.30;;;;;;5133009;27;20196;-72
2023/10/20 09:20:32;;;;;;;2.75;2.45;;;16.70;73.30;;;;;;5133745;27;20174;-73
2023/10/20 09:23:10;;;;;;;4.00;2.85;;;16.70;73.20;;;;;;5115980;28;20168;-72
2023/10/20 09:25:36;;;;;;;3.20;2.90;;;16.70;73.30;;;;;;5133236;28;20183;-72
2023/10/20 09:28:01;;;;;;;4.32;2.80;;;16.70;73.20;;;;;;5133296;28;20208;-73
2023/10/20 09:30:28;;;;;;;4.82;3.05;;;16.70;73.10;;;;;;5133491;28;20256;-74
2023/10/20 09:32:53;;;;;;;2.80;2.13;;;16.70;73.20;;;;;;5114520;28;20182;-72
2023/10/20 09:35:19;;;;;;;5.03;2.63;;;16.70;73.20;;;;;;5114993;28;20177;-73
2023/10/20 09:37:44;;;;;;;5.32;2.40;;;16.70;73.30;;;;;;5133512;28;20271;-72
2023/10/20 09:40:10;;;;;;;4.35;3.05;;;16.70;73.10;;;;;;5133146;28;20635;-72
2023/10/20 09:42:48;;;;;;;3.35;2.40;;;16.70;73.00;;;;;;5121817;28;20234;-73
2023/10/20 09:45:15;;;;;;;7.32;2.95;;;16.70;73.10;;;;;;5130447;28;20217;-72
2023/10/20 09:47:42;;;;;;;2.97;2.50;;;16.70;74.20;;;;;;5111864;28;20256;-72
2023/10/20 09:50:11;;;;;;;5.90;2.20;;;16.60;73.30;;;;;;5113528;28;20296;-79
2023/10/20 09:52:40;;;;;;;3.60;2.40;;;16.60;73.30;;;;;;5094202;28;20225;-69
2023/10/20 09:55:06;;;;;;;2.67;2.20;;;16.60;72.90;;;;;;5094799;28;20173;-79
2023/10/20 09:57:32;;;;;;;7.32;2.72;;;16.60;72.90;;;;;;5078402;28;20185;-77
2023/10/20 09:59:57;;;;;;;3.13;2.90;;;16.90;73.30;;;;;;5095814;28;20184;-74
2023/10/20 10:02:30;;;;;;;4.43;2.33;;;16.70;72.90;;;;;;5116144;28;20184;-74
2023/10/20 10:04:56;;;;;;;4.57;2.60;;;17.00;73.20;;;;;;5116608;28;20188;-73
2023/10/20 10:07:32;;;;;;;3.60;2.25;;;16.70;73.10;;;;;;5115966;28;20173;-73
2023/10/20 10:09:58;;;;;;;3.53;2.10;;;16.70;73.00;;;;;;5116516;28;20255;-73
2023/10/20 10:12:26;;;;;;;2.67;2.25;;;16.70;73.00;;;;;;5116518;28;20189;-74
2023/10/20 10:15:05;;;;;;;2.88;1.70;;;16.60;72.90;;;;;;5115592;28;20184;-68
2023/10/20 10:17:31;;;;;;;3.50;2.22;;;16.70;73.10;;;;;;5116101;28;20173;-69
2023/10/20 10:19:57;;;;;;;4.18;2.33;;;16.70;73.10;;;;;;5116426;28;20180;-70
2023/10/20 10:22:27;;;;;;;4.70;2.35;;;16.60;73.00;;;;;;5115424;28;20223;-69
2023/10/20 10:24:56;;;;;;;2.83;2.22;;;16.60;73.20;;;;;;5116109;28;20579;-69
2023/10/20 10:27:26;;;;;;;3.33;2.60;;;16.60;73.30;;;;;;5115992;28;20180;-70
2023/10/20 10:30:05;;;;;;;4.15;2.55;;;16.60;73.30;;;;;;5115482;28;20257;-70
2023/10/20 10:32:31;;;;;;;6.47;2.72;;;16.60;73.20;;;;;;5116020;28;20226;-68
2023/10/20 10:34:56;;;;;;;3.00;2.20;;;16.60;73.10;;;;;;5115393;28;20522;-71
2023/10/20 10:37:36;;;;;;;4.18;2.25;;;16.60;73.10;;;;;;5115750;28;20704;-70
2023/10/20 10:40:10;;;;;;;3.97;2.00;;;16.60;72.90;;;;;;5115633;28;20538;-72
2023/10/20 10:42:48;;;;;;;6.43;2.50;;;16.60;73.90;;;;;;5114897;28;20168;-71
2023/10/20 10:45:34;;;;;;;4.10;2.30;;;16.60;72.90;;;;;;5115444;28;20222;-71
2023/10/20 10:48:04;;;;;;;3.63;2.05;;;16.60;72.80;;;;;;5115895;28;20204;-76
2023/10/20 10:50:30;;;;;;;2.70;2.00;;;16.60;73.10;;;;;;5115476;28;20208;-75
2023/10/20 10:52:56;;;;;;;2.33;2.08;;;16.50;72.80;;;;;;5115176;28;20306;-73
2023/10/20 10:55:21;;;;;;;2.92;1.60;;;16.50;72.70;;;;;;5115579;28;20212;-74
2023/10/20 10:57:47;;;;;;;2.88;2.03;;;16.50;72.80;;;;;;5114775;28;20176;-73
2023/10/20 11:00:15;;;;;;;3.78;2.40;;;16.50;72.80;;;;;;5115689;28;20181;-76
2023/10/20 11:02:42;;;;;;;2.10;1.85;;;16.50;72.90;;;;;;5115439;28;20287;-73
2023/10/20 11:05:07;;;;;;;2.85;2.10;;;16.50;72.90;;;;;;5079725;28;20201;-74
2023/10/20 11:07:34;;;;;;;5.07;2.20;;;16.50;72.70;;;;;;5115205;28;20178;-75
2023/10/20 11:10:01;;;;;;;3.88;2.50;;;16.50;72.80;;;;;;5114610;28;20205;-75
2023/10/20 11:12:27;;;;;;;3.05;2.45;;;16.50;72.90;;;;;;5114031;28;20651;-75
2023/10/20 11:14:57;;;;;;;2.25;1.80;;;16.50;72.80;;;;;;5115455;28;20173;-73
2023/10/20 11:17:22;;;;;;;3.00;1.95;;;16.50;72.90;;;;;;5114211;28;20178;-74
2023/10/20 11:19:48;;;;;;;2.78;2.00;;;16.50;72.90;;;;;;5115118;28;20181;-73
2023/10/20 11:22:15;;;;;;;3.78;1.80;;;16.50;72.90;;;;;;5114565;28;20651;-74
2023/10/20 11:24:41;;;;;;;4.25;2.05;;;16.50;72.80;;;;;;5114303;28;20619;-74
2023/10/20 11:27:07;;;;;;;3.63;2.10;;;16.50;72.90;;;;;;5115165;28;20199;-74
2023/10/20 11:29:35;;;;;;;3.88;2.25;;;16.50;72.90;;;;;;5114760;28;20216;-74
2023/10/20 11:32:05;;;;;;;2.10;1.77;;;16.40;72.70;;;;;;5114175;28;20179;-76
2023/10/20 11:34:37;;;;;;;3.05;1.83;;;16.50;72.70;;;;;;5114741;28;20581;-76
2023/10/20 11:37:03;;;;;;;2.03;1.83;;;16.50;72.80;;;;;;5116794;28;20177;-76
2023/10/20 11:39:29;;;;;;;1.90;1.63;;;16.40;72.60;;;;;;5114341;28;20195;-77
2023/10/20 11:41:54;;;;;;;2.00;1.80;;;16.40;72.70;;;;;;5116001;28;20177;-74
2023/10/20 11:44:21;;;;;;;4.30;2.10;;;16.50;72.70;;;;;;5115713;28;20173;-78
2023/10/20 11:46:47;;;;;;;1.80;1.70;;;16.40;72.70;;;;;;5115606;28;20252;-74
2023/10/20 11:49:12;;;;;;;3.25;1.85;;;16.40;72.70;;;;;;5116431;28;20246;-76
2023/10/20 11:51:38;;;;;;;2.65;1.70;;;16.50;72.80;;;;;;5114506;28;20555;-74
2023/10/20 11:54:05;;;;;;;2.08;1.52;;;16.50;72.60;;;;;;5114428;28;20173;-76
2023/10/20 11:56:30;;;;;;;2.58;1.67;;;16.40;72.50;;;;;;5114390;28;20202;-76
2023/10/20 11:58:56;;;;;;;2.22;1.80;;;16.50;72.60;;;;;;5114972;28;20173;-74
2023/10/20 12:01:21;;;;;;;1.73;1.63;;;16.40;72.50;;;;;;5115845;28;20274;-76
2023/10/20 12:03:47;;;;;;;4.35;1.77;;;16.40;72.50;;;;;;5096277;28;20227;-73
2023/10/20 12:06:12;;;;;;;2.05;1.85;;;16.40;72.60;;;;;;5113602;28;20671;-73
2023/10/20 12:08:39;;;;;;;1.70;1.60;;;16.40;72.60;;;;;;5114330;28;20205;-75
2023/10/20 12:11:05;;;;;;;1.98;1.77;;;16.40;72.50;;;;;;5114241;28;20247;-73
2023/10/20 12:13:31;;;;;;;2.08;1.48;;;16.40;72.70;;;;;;5113526;28;20196;-75
2023/10/20 12:15:56;;;;;;;1.83;1.73;;;16.40;72.60;;;;;;5114135;28;20256;-73
2023/10/20 12:18:22;;;;;;;1.70;1.60;;;16.40;72.60;;;;;;5113850;28;20168;-74
2023/10/20 12:20:47;;;;;;;2.17;1.83;;;16.40;72.70;;;;;;5113424;28;20525;-73
2023/10/20 12:23:13;;;;;;;1.60;1.50;;;16.40;72.60;;;;;;5113592;28;20173;-73
2023/10/20 12:25:38;;;;;;;1.83;1.58;;;16.40;72.50;;;;;;5113877;28;20169;-73
2023/10/20 12:28:05;;;;;;;1.63;1.52;;;16.40;72.50;;;;;;5112939;28;20166;-74
2023/10/20 12:30:32;;;;;;;1.88;1.45;;;16.40;72.60;;;;;;5113644;28;20555;-75
2023/10/20 12:32:57;;;;;;;2.65;1.80;;;16.40;72.60;;;;;;5113630;28;20640;-75
2023/10/20 12:35:23;;;;;;;1.83;1.70;;;16.40;72.60;;;;;;5113387;28;20215;-76
2023/10/20 12:37:49;;;;;;;3.13;1.58;;;16.40;72.60;;;;;;5114634;28;20173;-74
2023/10/20 12:40:14;;;;;;;1.70;1.60;;;16.40;72.70;;;;;;5113982;28;20180;-76
2023/10/20 12:42:40;;;;;;;1.48;1.38;;;16.40;73.50;;;;;;5114831;28;20273;-74
2023/10/20 12:45:09;;;;;;;1.85;1.40;;;16.30;72.60;;;;;;5114692;28;20192;-76
2023/10/20 12:47:35;;;;;;;2.22;1.58;;;16.30;72.60;;;;;;5114812;28;20234;-74
2023/10/20 12:50:01;;;;;;;2.40;1.60;;;16.30;72.60;;;;;;5114739;28;20632;-74
2023/10/20 12:52:26;;;;;;;2.13;1.63;;;16.30;72.60;;;;;;5113180;28;20253;-75
2023/10/20 12:54:52;;;;;;;2.05;1.60;;;16.30;72.60;;;;;;5113682;28;20546;-73
2023/10/20 12:57:18;;;;;;;1.98;1.48;;;16.30;72.60;;;;;;5112358;28;20541;-74
2023/10/20 12:59:44;;;;;;;1.77;1.60;;;16.40;72.60;;;;;;5113390;28;20207;-73
2023/10/20 13:02:09;;;;;;;1.55;1.45;;;16.40;72.70;;;;;;5113181;28;20270;-73
2023/10/20 13:04:35;;;;;;;2.08;1.35;;;16.30;72.60;;;;;;5112504;28;20196;-74
2023/10/20 13:07:02;;;;;;;2.25;1.73;;;16.40;72.70;;;;;;5112922;28;20173;-73
2023/10/20 13:09:28;;;;;;;1.40;1.30;;;16.40;72.70;;;;;;5112548;28;20181;-74
2023/10/20 13:11:53;;;;;;;2.15;1.70;;;16.40;72.70;;;;;;5113099;28;20615;-72
2023/10/20 13:14:19;;;;;;;1.60;1.50;;;16.40;72.60;;;;;;5112913;28;20187;-74
2023/10/20 13:16:44;;;;;;;1.65;1.55;;;16.40;72.70;;;;;;5112445;28;20306;-72
2023/10/20 13:19:10;;;;;;;2.40;1.50;;;16.40;72.70;;;;;;5112882;28;20198;-72